Time;durP1;ratioP1;P1;durP2;ratioP2;P2;SDS_P1;SDS_P2;PMS_P1;PMS_P2;Temp;Humidity;BMP_temperature;BMP_pressure;BME280_temperature;BME280_humidity;BME280_pressure;Samples;Min_cycle;Max_cycle;Signal;HPM_P1;HPM_P2
2021/12/21 00:01:04;;;;;;;4.70;2.60;;;;;;;-4.67;82.80;97034.59;107737;1284;46250;-75
2021/12/21 00:03:32;;;;;;;4.90;2.70;;;;;;;-4.64;82.71;97033.19;107784;1283;31536;-75
2021/12/21 00:06:01;;;;;;;7.90;3.00;;;;;;;-4.60;82.86;97033.15;107739;1283;45005;-75
2021/12/21 00:08:29;;;;;;;5.30;2.80;;;;;;;-4.58;82.78;97034.97;107714;1283;41941;-75
2021/12/21 00:10:58;;;;;;;7.50;3.00;;;;;;;-4.61;82.50;97033.93;107803;1284;32215;-76
2021/12/21 00:13:41;;;;;;;6.20;2.60;;;;;;;-4.65;82.43;97036.43;107723;1283;88734;-76
2021/12/21 00:16:16;;;;;;;6.20;3.10;;;;;;;-4.64;82.48;97036.11;107773;1282;40266;-76
2021/12/21 00:19:00;;;;;;;7.20;3.20;;;;;;;-4.64;82.51;97036.11;107799;1284;53621;-76
2021/12/21 00:21:35;;;;;;;7.80;3.40;;;;;;;-4.62;82.25;97035.19;107705;1283;40301;-76
2021/12/21 00:24:12;;;;;;;9.40;4.60;;;;;;;-4.59;82.43;97037.14;107724;1284;39579;-76
2021/12/21 00:26:40;;;;;;;8.30;4.50;;;;;;;-4.49;83.18;97039.85;107749;1283;40073;-76
2021/12/21 00:29:09;;;;;;;8.20;4.60;;;;;;;-4.42;83.40;97037.43;107815;1282;33929;-76
2021/12/21 00:31:38;;;;;;;9.80;5.00;;;;;;;-4.34;83.71;97042.03;107840;1284;46448;-76
2021/12/21 00:34:08;;;;;;;9.30;4.00;;;;;;;-4.26;83.88;97045.34;107857;1283;33415;-76
2021/12/21 00:36:37;;;;;;;9.50;4.30;;;;;;;-4.24;83.86;97050.35;107703;1283;43921;-76
2021/12/21 00:39:11;;;;;;;8.70;4.80;;;;;;;-4.21;84.10;97052.13;107781;1284;31671;-76
2021/12/21 00:41:39;;;;;;;12.20;5.70;;;;;;;-4.17;84.27;97057.52;107745;1284;50961;-76
2021/12/21 00:44:07;;;;;;;11.00;6.40;;;;;;;-4.12;84.42;97058.86;107807;1284;42098;-76
2021/12/21 00:46:38;;;;;;;9.20;5.40;;;;;;;-4.08;84.62;97051.16;107804;1283;34612;-76
2021/12/21 00:49:14;;;;;;;12.70;6.30;;;;;;;-4.05;85.03;97058.11;107769;1283;32414;-76
2021/12/21 00:51:43;;;;;;;11.30;6.20;;;;;;;-4.13;85.69;97061.08;107922;1283;37542;-76
2021/12/21 00:54:12;;;;;;;10.40;5.70;;;;;;;-4.21;85.89;97060.54;107878;1283;35752;-76
2021/12/21 00:56:41;;;;;;;13.60;5.90;;;;;;;-4.21;85.99;97063.67;107748;1283;48731;-76
2021/12/21 00:59:09;;;;;;;9.60;5.80;;;;;;;-4.18;86.04;97061.80;107829;1283;33475;-76
2021/12/21 01:01:41;;;;;;;14.80;7.20;;;;;;;-4.16;86.01;97064.25;107742;1284;45802;-76
2021/12/21 01:04:18;;;;;;;10.80;6.10;;;;;;;-4.15;86.13;97062.88;107760;1283;49369;-76
2021/12/21 01:07:00;;;;;;;12.10;7.00;;;;;;;-4.13;86.23;97057.33;107764;1283;41851;-76
2021/12/21 01:09:56;;;;;;;15.90;6.90;;;;;;;-4.09;86.31;97062.17;107784;1284;35574;-76
2021/12/21 01:12:38;;;;;;;16.30;7.10;;;;;;;-4.06;86.39;97058.38;107727;1284;65712;-76
2021/12/21 01:15:20;;;;;;;13.70;6.40;;;;;;;-4.04;86.45;97056.94;107719;1283;47118;-76
2021/12/21 01:17:55;;;;;;;14.70;6.20;;;;;;;-4.05;86.60;97052.71;107729;1283;31438;-76
2021/12/21 01:20:33;;;;;;;8.90;5.30;;;;;;;-4.03;86.68;97057.39;107758;1283;39008;-77
2021/12/21 01:23:29;;;;;;;11.00;5.90;;;;;;;-4.04;86.65;97057.25;107678;1283;79903;-76
2021/12/21 01:26:03;;;;;;;10.00;6.00;;;;;;;-4.01;86.67;97064.23;107795;1283;40542;-76
2021/12/21 01:28:40;;;;;;;13.80;6.80;;;;;;;-3.99;86.78;97064.27;107778;1284;34080;-76
2021/12/21 01:31:21;;;;;;;11.40;6.70;;;;;;;-3.97;86.61;97064.77;107813;1284;31602;-76
2021/12/21 01:34:02;;;;;;;8.30;4.90;;;;;;;-3.97;86.72;97067.86;107847;1282;39868;-76
2021/12/21 01:36:36;;;;;;;11.70;6.70;;;;;;;-3.98;86.70;97069.98;107825;1284;36299;-76
2021/12/21 01:39:15;;;;;;;10.60;5.90;;;;;;;-3.98;86.67;97072.98;107799;1283;33339;-76
2021/12/21 01:41:52;;;;;;;6.50;4.20;;;;;;;-3.95;86.70;97072.31;107907;1284;58609;-76
2021/12/21 01:44:39;;;;;;;8.60;4.70;;;;;;;-3.97;86.68;97074.95;107782;1283;61235;-76
2021/12/21 01:49:55;;;;;;;11.20;6.80;;;;;;;-3.99;86.82;97072.70;107815;1283;58992;-76
2021/12/21 01:52:26;;;;;;;9.50;5.60;;;;;;;-4.01;86.84;97075.38;107727;1284;39315;-76
2021/12/21 01:54:55;;;;;;;11.30;5.90;;;;;;;-4.02;86.90;97074.13;107771;1284;34073;-77
2021/12/21 01:57:23;;;;;;;8.30;4.60;;;;;;;-4.01;86.89;97068.69;107805;1283;35710;-76
2021/12/21 01:59:52;;;;;;;10.90;5.30;;;;;;;-4.00;87.01;97062.45;107718;1283;42124;-76
2021/12/21 02:02:21;;;;;;;9.90;5.90;;;;;;;-4.01;86.97;97067.30;107730;1282;40774;-76
2021/12/21 02:04:50;;;;;;;11.30;5.50;;;;;;;-4.02;86.96;97065.45;107772;1283;36287;-77
2021/12/21 02:07:18;;;;;;;16.40;4.20;;;;;;;-4.02;86.94;97062.90;107689;1282;47320;-76
2021/12/21 02:09:46;;;;;;;8.30;4.40;;;;;;;-4.03;86.90;97061.69;107832;1284;36254;-76
2021/12/21 02:12:18;;;;;;;5.00;3.30;;;;;;;-4.04;86.80;97063.83;107845;1282;44916;-76
2021/12/21 02:14:54;;;;;;;9.60;4.60;;;;;;;-4.04;86.85;97055.87;107706;1283;39185;-76
2021/12/21 02:17:51;;;;;;;8.90;5.40;;;;;;;-4.04;86.83;97050.44;107814;1282;45774;-76
2021/12/21 02:20:25;;;;;;;6.90;4.70;;;;;;;-4.06;86.82;97049.78;107802;1282;27381;-76
2021/12/21 02:23:04;;;;;;;11.90;5.90;;;;;;;-4.07;86.89;97050.69;107787;1283;41778;-76
2021/12/21 02:25:52;;;;;;;12.30;5.90;;;;;;;-4.05;86.83;97054.65;107753;1283;43528;-76
2021/12/21 02:28:34;;;;;;;6.60;3.60;;;;;;;-4.05;86.80;97054.48;107731;1283;43317;-77
2021/12/21 02:31:03;;;;;;;9.80;5.00;;;;;;;-4.06;86.76;97054.95;107740;1282;42810;-76
2021/12/21 02:33:32;;;;;;;9.80;4.40;;;;;;;-4.06;86.61;97059.75;107737;1282;53748;-76
2021/12/21 02:36:00;;;;;;;9.70;5.50;;;;;;;-4.06;86.63;97072.33;107845;1283;41170;-76
2021/12/21 02:38:29;;;;;;;8.40;4.30;;;;;;;-4.04;86.57;97074.74;107706;1283;96149;-77
2021/12/21 02:40:57;;;;;;;9.70;5.00;;;;;;;-4.03;86.50;97076.34;107760;1282;39840;-76
2021/12/21 02:43:28;;;;;;;5.80;3.20;;;;;;;-4.04;86.38;97074.86;107767;1284;40588;-77
2021/12/21 02:45:59;;;;;;;10.20;4.50;;;;;;;-4.05;86.19;97069.95;107696;1284;50115;-76
2021/12/21 02:48:27;;;;;;;9.40;4.90;;;;;;;-4.05;86.04;97079.52;107812;1284;35426;-76
2021/12/21 02:50:55;;;;;;;8.80;4.70;;;;;;;-4.05;85.88;97073.16;107798;1282;46307;-77
2021/12/21 02:53:23;;;;;;;11.00;5.80;;;;;;;-4.06;85.68;97072.48;107713;1282;38164;-77
2021/12/21 02:55:52;;;;;;;7.80;4.20;;;;;;;-4.06;85.56;97069.09;107716;1283;42736;-77
2021/12/21 02:58:20;;;;;;;11.90;5.50;;;;;;;-4.08;85.61;97072.08;107731;1283;39220;-76
2021/12/21 03:00:51;;;;;;;10.40;5.40;;;;;;;-4.08;85.58;97066.32;107758;1284;49064;-77
2021/12/21 03:03:20;;;;;;;14.00;5.80;;;;;;;-4.07;85.62;97064.57;107787;1282;51396;-77
2021/12/21 03:05:51;;;;;;;10.00;5.60;;;;;;;-4.06;85.57;97063.92;107824;1284;36107;-76
2021/12/21 03:08:23;;;;;;;10.40;6.00;;;;;;;-4.07;85.57;97055.21;107778;1282;35563;-77
2021/12/21 03:11:04;;;;;;;8.50;3.90;;;;;;;-4.08;85.42;97059.09;107686;1282;46792;-77
2021/12/21 03:16:19;;;;;;;10.30;6.20;;;;;;;-4.09;85.58;97077.31;107763;1282;36154;-77
2021/12/21 03:18:47;;;;;;;11.50;5.10;;;;;;;-4.07;85.73;97077.45;107690;1282;43219;-76
2021/12/21 03:21:16;;;;;;;8.60;4.30;;;;;;;-4.07;85.72;97071.40;107828;1281;43675;-76
2021/12/21 03:23:44;;;;;;;14.00;6.90;;;;;;;-4.07;85.60;97079.16;107778;1284;41641;-77
2021/12/21 03:26:13;;;;;;;8.00;4.10;;;;;;;-4.07;85.71;97079.08;107825;1282;37976;-76
2021/12/21 03:28:41;;;;;;;13.10;5.30;;;;;;;-4.06;85.57;97076.86;107766;1283;48605;-76
2021/12/21 03:31:10;;;;;;;10.00;5.30;;;;;;;-4.06;85.63;97073.69;107720;1283;59113;-76
2021/12/21 03:33:38;;;;;;;8.30;3.70;;;;;;;-4.06;85.55;97074.08;107732;1282;32777;-76
2021/12/21 03:36:07;;;;;;;11.10;5.50;;;;;;;-4.05;85.54;97069.63;107743;1282;42658;-76
2021/12/21 03:38:37;;;;;;;10.80;5.80;;;;;;;-4.05;85.43;97077.36;107742;1284;40810;-76
2021/12/21 03:41:09;;;;;;;7.90;4.30;;;;;;;-4.03;85.32;97066.96;107685;1283;70386;-77
2021/12/21 03:43:38;;;;;;;12.10;5.90;;;;;;;-4.03;85.39;97069.90;107741;1283;48780;-76
2021/12/21 03:46:09;;;;;;;6.30;4.10;;;;;;;-4.02;85.32;97068.67;107768;1283;32204;-77
2021/12/21 03:48:41;;;;;;;12.30;6.70;;;;;;;-4.04;85.34;97064.48;107729;1283;67040;-77
2021/12/21 03:51:10;;;;;;;6.80;3.80;;;;;;;-4.05;85.31;97064.41;107846;1284;42095;-76
2021/12/21 03:53:39;;;;;;;10.00;4.70;;;;;;;-4.04;85.32;97065.02;107727;1282;47096;-76
2021/12/21 03:56:26;;;;;;;13.50;4.30;;;;;;;-4.05;85.25;97068.20;107732;1284;46867;-76
2021/12/21 03:58:54;;;;;;;10.10;5.50;;;;;;;-4.04;85.30;97069.05;107791;1284;29958;-77
2021/12/21 04:01:22;;;;;;;10.60;4.80;;;;;;;-4.04;85.28;97070.89;107721;1283;61193;-77
2021/12/21 04:03:51;;;;;;;10.40;5.90;;;;;;;-4.04;85.27;97064.42;107721;1284;46850;-76
2021/12/21 04:06:19;;;;;;;10.20;5.50;;;;;;;-4.03;85.43;97067.03;107654;1283;53138;-76
2021/12/21 04:08:48;;;;;;;11.20;6.50;;;;;;;-4.02;85.58;97068.56;107853;1282;40253;-77
2021/12/21 04:11:16;;;;;;;10.70;5.10;;;;;;;-4.01;85.58;97067.16;107886;1279;48085;-76
2021/12/21 04:13:44;;;;;;;7.90;3.90;;;;;;;-4.02;85.59;97061.30;107825;1283;36189;-76
2021/12/21 04:16:12;;;;;;;10.30;5.40;;;;;;;-4.03;85.78;97068.16;107809;1283;30717;-77
2021/12/21 04:18:41;;;;;;;5.40;3.20;;;;;;;-4.05;86.07;97068.08;107832;1282;39749;-76
2021/12/21 04:21:12;;;;;;;13.10;6.70;;;;;;;-4.08;86.37;97074.98;107800;1282;42246;-76
2021/12/21 04:23:41;;;;;;;11.80;6.00;;;;;;;-4.09;86.45;97070.93;107814;1279;51553;-76
2021/12/21 04:26:10;;;;;;;10.10;5.30;;;;;;;-4.09;86.59;97076.51;107803;1282;43595;-76
2021/12/21 04:28:39;;;;;;;9.90;6.50;;;;;;;-4.11;86.76;97074.94;107794;1282;47035;-77
2021/12/21 04:31:10;;;;;;;12.80;6.40;;;;;;;-4.14;87.83;97070.31;107859;1283;51405;-77
2021/12/21 04:33:43;;;;;;;12.30;6.80;;;;;;;-4.19;88.45;97079.65;107814;1282;67642;-77
2021/12/21 04:36:12;;;;;;;11.00;6.40;;;;;;;-4.17;88.20;97081.73;107765;1281;36507;-77
2021/12/21 04:38:45;;;;;;;7.60;5.40;;;;;;;-4.14;88.18;97074.65;107788;1283;33342;-76
2021/12/21 04:41:16;;;;;;;8.20;4.40;;;;;;;-4.12;87.84;97071.13;107917;1282;34929;-76
2021/12/21 04:43:45;;;;;;;9.90;5.30;;;;;;;-4.10;87.47;97086.14;107813;1282;35737;-77
2021/12/21 04:46:13;;;;;;;9.40;5.80;;;;;;;-4.07;86.95;97073.34;107821;1283;67903;-77
2021/12/21 04:48:42;;;;;;;10.20;6.00;;;;;;;-4.04;86.70;97083.22;107764;1283;35284;-77
2021/12/21 04:51:10;;;;;;;7.10;4.40;;;;;;;-4.02;86.38;97078.48;107708;1284;52691;-77
2021/12/21 04:53:39;;;;;;;11.20;4.90;;;;;;;-4.01;85.95;97080.40;107783;1283;33029;-76
2021/12/21 04:56:08;;;;;;;8.10;4.10;;;;;;;-4.01;85.71;97083.27;107815;1284;41407;-76
2021/12/21 04:58:36;;;;;;;10.70;5.20;;;;;;;-3.99;85.44;97080.48;107722;1283;30681;-76
2021/12/21 05:01:05;;;;;;;11.80;5.50;;;;;;;-3.98;85.33;97093.38;107787;1283;39821;-77
2021/12/21 05:03:34;;;;;;;7.70;3.80;;;;;;;-3.97;85.20;97093.24;107808;1284;60580;-77
2021/12/21 05:06:02;;;;;;;9.50;4.70;;;;;;;-3.98;85.13;97096.10;107703;1282;52590;-76
2021/12/21 05:08:34;;;;;;;9.60;4.30;;;;;;;-3.96;85.09;97100.02;107774;1281;40749;-76
2021/12/21 05:11:04;;;;;;;10.30;4.20;;;;;;;-3.95;84.91;97105.65;107745;1283;51970;-76
2021/12/21 05:13:37;;;;;;;7.80;4.40;;;;;;;-3.97;84.63;97103.96;107708;1283;37834;-76
2021/12/21 05:16:06;;;;;;;9.00;4.90;;;;;;;-3.97;84.66;97108.35;107751;1281;33751;-77
2021/12/21 05:18:35;;;;;;;9.90;5.70;;;;;;;-3.95;84.65;97112.16;107759;1283;68755;-77
2021/12/21 05:21:04;;;;;;;7.70;4.60;;;;;;;-3.95;84.67;97103.80;107751;1283;50768;-77
2021/12/21 05:23:35;;;;;;;7.20;5.00;;;;;;;-3.95;84.73;97112.20;107768;1281;30599;-76
2021/12/21 05:26:03;;;;;;;8.00;4.30;;;;;;;-3.95;84.67;97110.41;107701;1282;45499;-77
2021/12/21 05:28:32;;;;;;;10.60;4.80;;;;;;;-3.94;84.72;97110.28;107772;1282;30362;-77
2021/12/21 05:31:00;;;;;;;7.60;4.60;;;;;;;-3.93;84.80;97110.35;107703;1283;42869;-76
2021/12/21 05:33:29;;;;;;;7.30;4.70;;;;;;;-3.92;84.73;97111.64;107811;1283;28356;-76
2021/12/21 05:35:57;;;;;;;9.50;5.30;;;;;;;-3.93;84.66;97112.25;107731;1282;51583;-76
2021/12/21 05:38:31;;;;;;;10.80;6.30;;;;;;;-3.94;84.61;97116.52;107813;1283;39581;-77
2021/12/21 05:41:02;;;;;;;9.30;4.90;;;;;;;-3.93;84.75;97113.81;107782;1283;52182;-77
2021/12/21 05:43:31;;;;;;;10.10;4.80;;;;;;;-3.93;84.75;97112.63;107853;1284;36574;-76
2021/12/21 05:46:00;;;;;;;9.30;5.50;;;;;;;-3.94;84.86;97114.61;107862;1283;39725;-76
2021/12/21 05:48:28;;;;;;;9.80;5.90;;;;;;;-3.94;84.87;97120.31;107782;1284;72032;-77
2021/12/21 05:50:56;;;;;;;10.50;5.90;;;;;;;-3.93;85.09;97119.52;107831;1278;32802;-77
2021/12/21 05:53:25;;;;;;;9.70;5.30;;;;;;;-3.93;85.15;97119.87;107796;1282;40392;-77
2021/12/21 05:55:53;;;;;;;10.80;5.20;;;;;;;-3.94;85.21;97127.36;107825;1283;47789;-77
2021/12/21 05:58:21;;;;;;;10.00;6.40;;;;;;;-3.94;85.18;97123.10;107827;1281;35517;-76
2021/12/21 06:00:50;;;;;;;9.00;5.30;;;;;;;-3.97;85.17;97118.77;107820;1284;38574;-76
2021/12/21 06:03:18;;;;;;;7.60;5.00;;;;;;;-3.96;85.33;97117.32;107878;1283;36825;-77
2021/12/21 06:05:46;;;;;;;9.60;6.00;;;;;;;-3.95;85.55;97124.71;107723;1282;56186;-76
2021/12/21 06:08:15;;;;;;;9.60;6.00;;;;;;;-3.94;85.65;97117.80;107819;1283;37446;-77
2021/12/21 06:10:45;;;;;;;11.60;4.80;;;;;;;-3.93;85.73;97112.94;107940;1282;48313;-76
2021/12/21 06:27:11;;;;;;;13.20;6.40;;;;;;;-3.92;86.15;97136.38;107699;1282;35020;-76
2021/12/21 06:29:42;;;;;;;12.20;7.00;;;;;;;-3.92;86.00;97136.90;107875;1284;30239;-76
2021/12/21 06:32:12;;;;;;;11.20;6.90;;;;;;;-3.94;86.12;97141.73;107786;1283;30200;-77
2021/12/21 06:34:41;;;;;;;12.40;6.70;;;;;;;-3.93;86.17;97145.98;107826;1281;45129;-76
2021/12/21 06:37:14;;;;;;;11.60;6.80;;;;;;;-3.92;86.19;97142.95;107764;1283;33231;-76
2021/12/21 06:39:44;;;;;;;13.00;5.90;;;;;;;-3.92;86.39;97150.48;107840;1283;41290;-76
2021/12/21 06:42:15;;;;;;;13.70;6.60;;;;;;;-3.92;86.54;97149.48;107759;1283;36625;-76
2021/12/21 06:44:47;;;;;;;12.50;7.40;;;;;;;-3.96;86.68;97150.03;107870;1284;54848;-77
2021/12/21 06:52:53;;;;;;;11.50;7.80;;;;;;;-3.88;86.89;97156.48;107788;1284;37229;-76
2021/12/21 06:55:21;;;;;;;14.00;7.20;;;;;;;-3.86;86.80;97161.95;107720;1282;54341;-76
2021/12/21 06:57:50;;;;;;;12.90;7.40;;;;;;;-3.85;86.85;97160.06;107777;1282;36146;-76
2021/12/21 07:00:19;;;;;;;12.30;7.10;;;;;;;-3.84;86.76;97164.23;107700;1282;40648;-76
2021/12/21 07:02:48;;;;;;;14.30;6.10;;;;;;;-3.86;87.37;97167.94;107751;1282;33387;-76
2021/12/21 07:05:17;;;;;;;8.70;5.20;;;;;;;-3.86;87.34;97161.92;107800;1281;32723;-76
2021/12/21 07:07:49;;;;;;;10.30;5.50;;;;;;;-3.89;87.06;97168.77;107966;1283;42405;-76
2021/12/21 07:10:23;;;;;;;10.40;5.60;;;;;;;-3.92;87.02;97176.26;107742;1283;39915;-76
2021/12/21 07:18:29;;;;;;;9.40;5.40;;;;;;;-3.91;86.67;97181.29;107778;1283;56143;-76
2021/12/21 07:21:03;;;;;;;11.10;4.80;;;;;;;-3.93;86.70;97176.37;107827;1283;33513;-76
2021/12/21 07:23:32;;;;;;;11.50;6.60;;;;;;;-3.94;86.76;97175.77;107760;1284;42526;-76
2021/12/21 07:26:01;;;;;;;13.20;6.30;;;;;;;-3.91;87.03;97178.39;107727;1283;44632;-76
2021/12/21 07:28:30;;;;;;;10.80;6.10;;;;;;;-3.86;87.17;97181.77;107818;1283;39085;-76
2021/12/21 07:30:58;;;;;;;11.50;6.60;;;;;;;-3.86;87.29;97184.00;107722;1283;39120;-76
2021/12/21 07:33:28;;;;;;;10.10;5.50;;;;;;;-3.88;87.28;97187.52;107565;1282;167235;-76
2021/12/21 07:35:57;;;;;;;14.40;6.70;;;;;;;-3.86;87.21;97189.25;107818;1282;33805;-76
2021/12/21 07:38:30;;;;;;;10.50;5.60;;;;;;;-3.85;87.41;97188.44;107746;1284;54713;-76
2021/12/21 07:40:59;;;;;;;12.60;6.60;;;;;;;-3.87;87.31;97195.69;107712;1282;32358;-76
2021/12/21 07:43:28;;;;;;;10.70;5.60;;;;;;;-3.83;87.44;97192.46;107849;1282;44559;-76
2021/12/21 07:45:56;;;;;;;10.70;5.40;;;;;;;-3.75;87.56;97197.58;107764;1283;36819;-76
2021/12/21 07:48:26;;;;;;;8.20;4.30;;;;;;;-3.74;87.27;97197.29;107911;1282;36512;-76
2021/12/21 07:50:55;;;;;;;3.90;3.00;;;;;;;-3.73;86.68;97199.09;107739;1281;40963;-76
2021/12/21 07:53:25;;;;;;;8.70;5.00;;;;;;;-3.67;86.65;97203.09;107848;1283;35393;-76
2021/12/21 07:55:57;;;;;;;9.00;5.20;;;;;;;-3.62;86.61;97203.19;107752;1283;42074;-76
2021/12/21 07:58:29;;;;;;;11.30;6.50;;;;;;;-3.62;86.40;97209.45;107759;1281;34639;-76
2021/12/21 08:00:59;;;;;;;8.50;3.90;;;;;;;-3.65;86.47;97203.70;107864;1283;65422;-76
2021/12/21 08:03:32;;;;;;;9.60;6.10;;;;;;;-3.68;86.65;97202.48;107780;1283;38409;-76
2021/12/21 08:06:03;;;;;;;9.70;5.10;;;;;;;-3.69;86.72;97203.81;107722;1284;39849;-76
2021/12/21 08:08:36;;;;;;;12.10;6.80;;;;;;;-3.67;86.83;97212.77;107905;1281;31574;-76
2021/12/21 08:11:28;;;;;;;8.40;4.40;;;;;;;-3.66;86.78;97210.37;107843;1283;47739;-76
2021/12/21 08:13:58;;;;;;;15.00;7.80;;;;;;;-3.69;86.74;97213.11;107521;1284;43142;-76
2021/12/21 08:16:27;;;;;;;12.60;6.20;;;;;;;-3.67;86.88;97214.14;107828;1282;41796;-76
2021/12/21 08:18:56;;;;;;;9.00;5.50;;;;;;;-3.61;86.83;97216.40;107858;1284;41800;-75
2021/12/21 08:21:26;;;;;;;36.50;17.30;;;;;;;-3.57;86.62;97213.73;107781;1282;54820;-75
2021/12/21 08:23:56;;;;;;;22.50;11.00;;;;;;;-3.56;86.68;97215.31;107885;1282;35067;-75
2021/12/21 08:26:25;;;;;;;12.20;6.90;;;;;;;-3.48;86.79;97218.65;107807;1282;41153;-75
2021/12/21 08:28:54;;;;;;;10.40;5.70;;;;;;;-3.40;86.76;97222.60;107847;1282;37734;-75
2021/12/21 08:31:22;;;;;;;13.20;7.30;;;;;;;-3.34;86.73;97225.09;107852;1284;32233;-75
2021/12/21 08:33:51;;;;;;;10.00;5.10;;;;;;;-3.29;86.52;97227.27;107814;1282;41456;-76
2021/12/21 08:36:20;;;;;;;8.90;4.90;;;;;;;-3.27;86.07;97227.58;107863;1283;38767;-76
2021/12/21 08:38:49;;;;;;;11.10;5.90;;;;;;;-3.31;85.89;97231.75;107871;1283;36478;-76
2021/12/21 08:41:20;;;;;;;12.20;6.30;;;;;;;-3.38;85.60;97229.66;107936;1282;30557;-76
2021/12/21 08:43:53;;;;;;;8.20;5.30;;;;;;;-3.38;85.72;97235.47;107813;1278;36949;-76
2021/12/21 08:46:22;;;;;;;8.50;4.50;;;;;;;-3.24;85.90;97239.35;107889;1284;35525;-76
2021/12/21 08:48:51;;;;;;;8.60;4.60;;;;;;;-3.14;85.84;97240.67;107792;1282;46138;-76
2021/12/21 08:51:19;;;;;;;9.10;4.80;;;;;;;-3.09;85.85;97243.23;107836;1283;31704;-76
2021/12/21 08:53:48;;;;;;;6.40;4.00;;;;;;;-3.02;85.69;97250.03;107871;1281;36139;-76
2021/12/21 08:56:17;;;;;;;9.00;5.30;;;;;;;-2.97;85.56;97254.65;107881;1283;51178;-76
2021/12/21 08:58:47;;;;;;;7.50;3.80;;;;;;;-3.03;85.22;97258.16;107898;1282;38998;-76
2021/12/21 09:01:16;;;;;;;9.20;4.30;;;;;;;-3.04;84.98;97256.55;107925;1282;30198;-76
2021/12/21 09:03:46;;;;;;;7.60;4.20;;;;;;;-3.04;84.82;97256.87;107904;1281;38373;-76
2021/12/21 09:06:14;;;;;;;;;;;;;;;-2.94;84.82;97257.94;107845;1282;31279;-76
2021/12/21 09:08:43;;;;;;;8.00;3.50;;;;;;;-2.87;84.77;97255.79;107732;1281;39666;-76
2021/12/21 09:11:11;;;;;;;7.90;4.00;;;;;;;-2.77;84.73;97250.00;107749;1281;43672;-76
2021/12/21 09:13:40;;;;;;;8.90;4.50;;;;;;;-2.76;84.24;97247.23;107787;1282;37873;-76
2021/12/21 09:16:09;;;;;;;8.20;3.90;;;;;;;-2.70;83.58;97246.50;107666;1283;50652;-76
2021/12/21 09:18:37;;;;;;;10.50;5.70;;;;;;;-2.59;83.11;97244.15;107730;1282;41256;-76
2021/12/21 09:21:06;;;;;;;7.90;4.50;;;;;;;-2.42;83.11;97244.63;107750;1281;33408;-76
2021/12/21 09:23:35;;;;;;;7.90;4.20;;;;;;;-2.48;82.91;97240.45;107696;1282;40800;-76
2021/12/21 09:26:04;;;;;;;9.40;4.00;;;;;;;-2.64;82.13;97246.34;107842;1282;42510;-76
2021/12/21 09:28:32;;;;;;;5.80;3.10;;;;;;;-2.54;82.41;97244.16;107695;1283;91473;-76
2021/12/21 09:31:01;;;;;;;6.90;2.70;;;;;;;-2.16;82.82;97241.36;107841;1284;47824;-76
2021/12/21 09:33:29;;;;;;;6.00;3.00;;;;;;;-1.87;82.25;97243.71;107719;1283;33520;-76
2021/12/21 09:35:58;;;;;;;6.90;3.10;;;;;;;-1.88;81.27;97245.07;107937;1283;29436;-76
2021/12/21 09:38:26;;;;;;;7.30;2.90;;;;;;;-1.86;80.55;97245.88;107895;1282;36188;-76
2021/12/21 09:40:55;;;;;;;7.50;3.70;;;;;;;-2.11;78.90;97241.22;107820;1282;35497;-76
2021/12/21 09:43:24;;;;;;;7.10;3.70;;;;;;;-2.26;79.22;97245.16;107737;1283;39541;-76
2021/12/21 09:45:53;;;;;;;6.80;3.60;;;;;;;-2.14;79.82;97241.94;107770;1283;43107;-76
2021/12/21 09:48:23;;;;;;;5.40;3.20;;;;;;;-2.01;79.86;97242.65;107755;1281;36215;-76
2021/12/21 09:50:55;;;;;;;6.20;2.80;;;;;;;-2.02;78.89;97245.08;107748;1282;33256;-76
2021/12/21 09:53:26;;;;;;;5.00;3.00;;;;;;;-2.36;77.70;97250.70;107881;1281;39057;-76
2021/12/21 09:55:55;;;;;;;9.30;4.10;;;;;;;-2.64;77.52;97250.14;107748;1281;36342;-76
2021/12/21 09:58:24;;;;;;;6.50;3.30;;;;;;;-2.72;77.86;97251.39;107753;1281;36205;-76
2021/12/21 10:00:52;;;;;;;12.50;6.40;;;;;;;-2.72;78.15;97254.38;107830;1282;35357;-75
2021/12/21 10:03:24;;;;;;;9.20;4.80;;;;;;;-2.53;78.77;97257.48;107768;1281;35612;-76
2021/12/21 10:06:06;;;;;;;6.20;3.90;;;;;;;-2.20;78.49;97252.58;107748;1282;39758;-76
2021/12/21 10:08:36;;;;;;;8.80;4.60;;;;;;;-1.81;78.25;97252.58;107749;1282;51592;-76
2021/12/21 10:11:07;;;;;;;8.60;5.00;;;;;;;-1.45;78.56;97244.77;107856;1283;40821;-76
2021/12/21 10:13:36;;;;;;;;;;;;;;;-1.18;78.24;97248.23;107771;1282;33589;-76
2021/12/21 10:16:06;;;;;;;4.00;2.10;;;;;;;-1.09;77.16;97246.27;107857;1283;31469;-76
2021/12/21 10:18:38;;;;;;;3.20;2.10;;;;;;;-1.33;76.12;97244.92;107839;1283;34055;-76
2021/12/21 10:21:09;;;;;;;6.60;3.50;;;;;;;-1.72;75.13;97248.75;107882;1283;30996;-76
2021/12/21 10:23:40;;;;;;;9.20;4.50;;;;;;;-2.11;75.25;97249.77;107745;1282;36700;-76
2021/12/21 10:26:11;;;;;;;5.70;2.80;;;;;;;-2.15;75.97;97249.39;107748;1282;35411;-76
2021/12/21 10:28:42;;;;;;;11.40;3.40;;;;;;;-2.24;75.36;97245.61;107740;1283;40061;-76
2021/12/21 10:31:14;;;;;;;10.10;3.80;;;;;;;-2.33;75.37;97247.39;107872;1283;35555;-76
2021/12/21 10:33:46;;;;;;;4.10;2.70;;;;;;;-2.43;75.36;97244.30;107861;1283;35924;-75
2021/12/21 10:36:17;;;;;;;8.30;3.90;;;;;;;-2.65;75.02;97246.29;107810;1281;32854;-75
2021/12/21 10:38:52;;;;;;;8.00;4.60;;;;;;;-2.65;75.83;97242.42;107827;1281;43624;-76
2021/12/21 10:41:27;;;;;;;6.40;3.90;;;;;;;-2.58;75.82;97240.98;107793;1282;31634;-75
2021/12/21 10:44:00;;;;;;;7.30;3.30;;;;;;;-2.51;75.34;97235.63;107772;1284;32918;-76
2021/12/21 10:46:30;;;;;;;5.30;2.40;;;;;;;-2.25;75.52;97224.27;107818;1282;38588;-76
2021/12/21 10:49:10;;;;;;;7.10;3.80;;;;;;;-2.07;74.81;97232.08;107737;1283;39198;-76
2021/12/21 10:51:53;;;;;;;8.70;3.60;;;;;;;-1.90;74.19;97230.05;107731;1284;36138;-76
2021/12/21 10:54:29;;;;;;;5.50;3.60;;;;;;;-1.78;73.93;97229.30;107722;1283;36123;-76
2021/12/21 10:57:00;;;;;;;5.90;3.90;;;;;;;-1.34;73.78;97224.34;107850;1283;35592;-76
2021/12/21 10:59:37;;;;;;;9.10;4.60;;;;;;;-1.21;71.99;97228.98;107741;1281;40963;-76
2021/12/21 11:02:11;;;;;;;8.40;4.20;;;;;;;-1.41;72.47;97241.12;107929;1283;39700;-76
2021/12/21 11:04:42;;;;;;;5.90;3.40;;;;;;;-1.45;73.75;97241.94;107913;1282;37171;-76
2021/12/21 11:07:22;;;;;;;5.80;2.50;;;;;;;-1.92;76.55;97238.75;107863;1284;32937;-76
2021/12/21 11:09:59;;;;;;;5.90;2.60;;;;;;;-2.06;78.15;97238.92;107760;1282;32597;-75
2021/12/21 11:12:29;;;;;;;4.80;2.40;;;;;;;-2.22;78.12;97238.25;107796;1283;29928;-76
2021/12/21 11:15:01;;;;;;;5.00;2.30;;;;;;;-2.32;78.49;97244.32;107685;1283;38663;-75
2021/12/21 11:17:30;;;;;;;4.70;2.70;;;;;;;-2.36;78.75;97242.88;107748;1283;41063;-75
2021/12/21 11:19:58;;;;;;;4.70;2.60;;;;;;;-2.50;78.78;97242.90;107846;1283;31781;-75
2021/12/21 11:22:28;;;;;;;5.60;2.90;;;;;;;-2.62;79.18;97242.98;107757;1283;34809;-75
2021/12/21 11:24:59;;;;;;;4.60;2.60;;;;;;;-2.70;79.67;97239.04;107758;1283;51717;-75
2021/12/21 11:27:33;;;;;;;3.10;2.10;;;;;;;-2.73;79.84;97236.64;107731;1281;33598;-75
2021/12/21 11:30:04;;;;;;;4.20;2.30;;;;;;;-2.84;79.66;97235.85;107732;1283;37917;-75
2021/12/21 11:32:39;;;;;;;3.30;2.00;;;;;;;-2.90;79.90;97235.77;107709;1283;48204;-75
2021/12/21 11:37:55;;;;;;;4.50;2.60;;;;;;;-3.02;80.35;97230.84;107725;1283;34325;-75
2021/12/21 11:40:26;;;;;;;4.20;2.20;;;;;;;-3.03;80.42;97239.58;107708;1283;42285;-75
2021/12/21 11:43:10;;;;;;;4.30;2.40;;;;;;;-3.03;80.18;97241.48;107728;1284;32411;-75
2021/12/21 11:45:48;;;;;;;8.00;3.20;;;;;;;-3.10;80.25;97242.34;107704;1281;42418;-75
2021/12/21 11:48:24;;;;;;;4.50;2.40;;;;;;;-3.20;80.38;97243.50;107821;1283;32253;-74
2021/12/21 11:50:59;;;;;;;5.10;2.70;;;;;;;-3.39;80.97;97249.80;107770;1281;37156;-75
2021/12/21 11:53:28;;;;;;;4.90;2.60;;;;;;;-3.49;81.05;97254.27;107756;1281;38142;-74
2021/12/21 11:55:56;;;;;;;4.60;2.40;;;;;;;-3.53;80.93;97261.33;107757;1283;39613;-74
2021/12/21 11:58:27;;;;;;;3.90;2.20;;;;;;;-3.64;80.62;97258.55;107739;1283;39296;-74
2021/12/21 12:01:00;;;;;;;3.90;2.10;;;;;;;-3.74;80.45;97258.46;107864;1281;33364;-74
2021/12/21 12:03:33;;;;;;;3.40;1.90;;;;;;;-3.77;80.39;97262.05;107876;1281;30531;-75
2021/12/21 12:06:03;;;;;;;3.20;2.20;;;;;;;-3.75;80.06;97261.02;107737;1284;35910;-75
2021/12/21 12:08:44;;;;;;;4.10;1.80;;;;;;;-3.73;79.57;97259.42;107723;1282;41841;-75
2021/12/21 12:11:24;;;;;;;3.40;1.90;;;;;;;-3.75;78.37;97257.04;107762;1282;33956;-75
2021/12/21 12:14:05;;;;;;;3.80;1.80;;;;;;;-3.68;78.55;97258.41;107784;1281;34853;-75